PWSweather.com
Personal Weather Stations
Station Observations
OBSERWACJEMETEO
Skórowo, SkorowoPL 76-230

SkórowoSkorowoPL 76-230

Lat: 54.5030556, Lon: 17.5277777

Elevation: 77

Station Type: WH2080

http://obserwacjemeteo.eu/

High Low Average
Temperature 66.7°F19.3°C 54.5°F12.5°C 59.3°F15.2°C
Dew Point 63.1°F17.3°C 53.1°F11.7°C 57.0°F13.9°C
Winds 2.2 mph 3.5 kmh Calm Calm Calm NECalm NE
Wind Gusts 3.8 mph6.1 kmh -- 2.0 mph3.2 kmh
Humidity 99% 75% 92%
Pressure 30.06 in1017.9 mb 29.99 in1015.6 mb -
Precipitation 1.76 in44.7 mm - -
Hour Temp Dew Point Humidity Winds Wind Gusts Pressure Precip Precip Rate Daily Precip Total
12:00 AM 54.5°F12.5°C 53.1°F11.7°C 95% Calm Calm 1.6 mph2.6 kmh 30.06 in1017.9 mb 0.22 in5.6 mm 0.00 in0.0 mm 0.22 in5.6 mm
12:10 AM 54.5°F12.5°C 53.4°F11.9°C 96% 0.7 mph SW1.1 kmh SW 1.6 mph2.6 kmh 30.05 in1017.6 mb 0.21 in5.3 mm 0.00 in0.0 mm 0.28 in7.1 mm
12:20 AM 54.7°F12.6°C 53.6°F12.0°C 96% Calm Calm 1.6 mph2.6 kmh 30.06 in1017.9 mb 0.24 in6.1 mm 0.18 in4.6 mm 0.35 in8.9 mm
12:30 AM 54.7°F12.6°C 53.6°F12.0°C 96% 0.7 mph SW1.1 kmh SW 1.6 mph2.6 kmh 30.05 in1017.6 mb 0.28 in7.1 mm 0.24 in6.1 mm 0.44 in11.2 mm
12:40 AM 54.7°F12.6°C 53.9°F12.2°C 97% Calm Calm 1.6 mph2.6 kmh 30.05 in1017.6 mb 0.39 in9.9 mm 0.66 in16.8 mm 0.57 in14.5 mm
12:50 AM 54.7°F12.6°C 53.9°F12.2°C 97% 0.7 mph SW1.1 kmh SW 1.6 mph2.6 kmh 30.04 in1017.3 mb 0.48 in12.2 mm 0.54 in13.7 mm 0.70 in17.8 mm
01:00 AM 54.7°F12.6°C 53.9°F12.2°C 97% 0.7 mph SW1.1 kmh SW 1.6 mph2.6 kmh 30.04 in1017.3 mb 0.66 in16.8 mm 0.22 in5.6 mm 0.89 in22.6 mm
01:10 AM 54.9°F12.7°C 54.3°F12.4°C 98% 0.7 mph SW1.1 kmh SW 1.6 mph2.6 kmh 30.04 in1017.3 mb 0.86 in21.8 mm 1.20 in30.5 mm 1.15 in29.2 mm
01:20 AM 54.9°F12.7°C 54.3°F12.4°C 98% 0.7 mph SW1.1 kmh SW 2.2 mph3.5 kmh 30.04 in1017.3 mb 0.91 in23.1 mm 0.30 in7.6 mm 1.26 in32.0 mm
01:30 AM 54.9°F12.7°C 54.3°F12.4°C 98% Calm Calm 1.6 mph2.6 kmh 30.04 in1017.3 mb 0.84 in21.3 mm 0.00 in0.0 mm 1.29 in32.8 mm
01:40 AM 54.9°F12.7°C 54.3°F12.4°C 98% 0.7 mph SW1.1 kmh SW 1.6 mph2.6 kmh 30.04 in1017.3 mb 0.73 in18.5 mm 0.00 in0.0 mm 1.30 in33.0 mm
01:50 AM 54.9°F12.7°C 54.3°F12.4°C 98% Calm Calm 1.6 mph2.6 kmh 30.04 in1017.3 mb 0.61 in15.5 mm 0.00 in0.0 mm 1.31 in33.3 mm
02:00 AM 55.0°F12.8°C 54.8°F12.7°C 99% Calm Calm 1.6 mph2.6 kmh 30.03 in1016.9 mb 0.44 in11.2 mm 0.00 in0.0 mm 1.32 in33.5 mm
02:10 AM 55.0°F12.8°C 54.8°F12.7°C 99% 0.7 mph SW1.1 kmh SW 1.6 mph2.6 kmh 30.03 in1016.9 mb 0.20 in5.1 mm 0.00 in0.0 mm 1.35 in34.3 mm
02:20 AM 55.2°F12.9°C 55.0°F12.8°C 99% 0.7 mph SSW1.1 kmh SSW 1.6 mph2.6 kmh 30.03 in1016.9 mb 0.09 in2.3 mm 0.00 in0.0 mm 1.37 in34.8 mm
02:30 AM 55.2°F12.9°C 55.0°F12.8°C 99% 0.7 mph SW1.1 kmh SW 2.2 mph3.5 kmh 30.03 in1016.9 mb 0.12 in3.0 mm 0.18 in4.6 mm 1.41 in35.8 mm
02:40 AM 55.2°F12.9°C 55.0°F12.8°C 99% Calm Calm 1.6 mph2.6 kmh 30.03 in1016.9 mb 0.12 in3.0 mm 0.00 in0.0 mm 1.42 in36.1 mm
02:50 AM 55.4°F13.0°C 55.1°F12.8°C 99% 0.7 mph SW1.1 kmh SW 1.6 mph2.6 kmh 30.02 in1016.6 mb 0.13 in3.3 mm 0.06 in1.5 mm 1.44 in36.6 mm
03:00 AM 55.4°F13.0°C 55.1°F12.8°C 99% Calm Calm 1.6 mph2.6 kmh 30.02 in1016.6 mb 0.13 in3.3 mm 0.00 in0.0 mm 1.45 in36.8 mm
03:10 AM 55.4°F13.0°C 55.1°F12.8°C 99% 0.7 mph WSW1.1 kmh WSW 1.6 mph2.6 kmh 30.02 in1016.6 mb 0.13 in3.3 mm 0.00 in0.0 mm 1.48 in37.6 mm
03:20 AM 55.6°F13.1°C 55.3°F12.9°C 99% 0.7 mph SW1.1 kmh SW 1.6 mph2.6 kmh 30.01 in1016.3 mb 0.14 in3.6 mm 0.06 in1.5 mm 1.51 in38.4 mm
03:30 AM 55.6°F13.1°C 55.3°F12.9°C 99% Calm Calm 1.6 mph2.6 kmh 30.02 in1016.6 mb 0.13 in3.3 mm 0.00 in0.0 mm 1.54 in39.1 mm
03:40 AM 55.8°F13.2°C 55.5°F13.1°C 99% Calm Calm 2.2 mph3.5 kmh 30.01 in1016.3 mb 0.13 in3.3 mm 0.00 in0.0 mm 1.55 in39.4 mm
03:50 AM 55.8°F13.2°C 55.5°F13.1°C 99% Calm Calm 1.6 mph2.6 kmh 30.02 in1016.6 mb 0.12 in3.0 mm 0.00 in0.0 mm 1.56 in39.6 mm
04:00 AM 55.8°F13.2°C 55.5°F13.1°C 99% Calm Calm 1.6 mph2.6 kmh 30.01 in1016.3 mb 0.11 in2.8 mm 0.00 in0.0 mm 1.56 in39.6 mm
04:10 AM 55.6°F13.1°C 55.3°F12.9°C 99% 0.7 mph SW1.1 kmh SW 1.6 mph2.6 kmh 30.01 in1016.3 mb 0.09 in2.3 mm 0.00 in0.0 mm 1.57 in39.9 mm
04:20 AM 55.6°F13.1°C 55.3°F12.9°C 99% Calm Calm 2.2 mph3.5 kmh 30.01 in1016.3 mb 0.07 in1.8 mm 0.00 in0.0 mm 1.58 in40.1 mm
04:30 AM 55.4°F13.0°C 55.1°F12.8°C 99% 0.7 mph SW1.1 kmh SW 1.6 mph2.6 kmh 30.00 in1015.9 mb 0.05 in1.3 mm 0.00 in0.0 mm 1.58 in40.1 mm
04:40 AM 55.4°F13.0°C 55.1°F12.8°C 99% Calm Calm 2.2 mph3.5 kmh 30.01 in1016.3 mb 0.04 in1.0 mm 0.00 in0.0 mm 1.58 in40.1 mm
04:50 AM 55.6°F13.1°C 55.3°F12.9°C 99% 0.7 mph SW1.1 kmh SW 2.2 mph3.5 kmh 30.01 in1016.3 mb 0.04 in1.0 mm 0.00 in0.0 mm 1.59 in40.4 mm
05:00 AM 55.6°F13.1°C 55.3°F12.9°C 99% Calm Calm 1.6 mph2.6 kmh 30.01 in1016.3 mb 0.05 in1.3 mm 0.01 in0.3 mm 1.61 in40.9 mm
05:10 AM 55.8°F13.2°C 55.5°F13.1°C 99% Calm Calm 0.7 mph1.1 kmh 30.00 in1015.9 mb 0.05 in1.3 mm 0.00 in0.0 mm 1.62 in41.1 mm
05:20 AM 55.9°F13.3°C 55.7°F13.2°C 99% Calm Calm 1.6 mph2.6 kmh 30.00 in1015.9 mb 0.06 in1.5 mm 0.06 in1.5 mm 1.64 in41.7 mm
05:30 AM 55.9°F13.3°C 55.7°F13.2°C 99% Calm Calm 2.2 mph3.5 kmh 30.01 in1016.3 mb 0.09 in2.3 mm 0.18 in4.6 mm 1.68 in42.7 mm
05:40 AM 56.1°F13.4°C 55.9°F13.3°C 99% Calm Calm 1.6 mph2.6 kmh 30.01 in1016.3 mb 0.11 in2.8 mm 0.12 in3.0 mm 1.69 in42.9 mm
05:50 AM 56.3°F13.5°C 56.0°F13.3°C 99% 0.7 mph SW1.1 kmh SW 1.6 mph2.6 kmh 30.01 in1016.3 mb 0.11 in2.8 mm 0.00 in0.0 mm 1.70 in43.2 mm
06:00 AM 56.5°F13.6°C 56.2°F13.4°C 99% 0.7 mph SW1.1 kmh SW 1.6 mph2.6 kmh 30.00 in1015.9 mb 0.11 in2.8 mm 0.00 in0.0 mm 1.71 in43.4 mm
06:10 AM 56.7°F13.7°C 56.4°F13.6°C 99% 0.7 mph SW1.1 kmh SW 1.6 mph2.6 kmh 30.00 in1015.9 mb 0.11 in2.8 mm 0.00 in0.0 mm 1.72 in43.7 mm
06:20 AM 56.8°F13.8°C 56.6°F13.7°C 99% Calm Calm 1.6 mph2.6 kmh 30.01 in1016.3 mb 0.08 in2.0 mm 0.00 in0.0 mm 1.72 in43.7 mm
06:30 AM 57.0°F13.9°C 56.8°F13.8°C 99% 0.7 mph SW1.1 kmh SW 1.6 mph2.6 kmh 30.00 in1015.9 mb 0.06 in1.5 mm 0.00 in0.0 mm 1.74 in44.2 mm
06:40 AM 57.2°F14.0°C 56.9°F13.8°C 99% Calm Calm 1.6 mph2.6 kmh 30.00 in1015.9 mb 0.05 in1.3 mm 0.00 in0.0 mm 1.74 in44.2 mm
06:50 AM 57.4°F14.1°C 57.1°F13.9°C 99% Calm Calm 2.2 mph3.5 kmh 30.00 in1015.9 mb 0.05 in1.3 mm 0.00 in0.0 mm 1.75 in44.5 mm
07:00 AM 57.6°F14.2°C 57.3°F14.1°C 99% Calm Calm 1.6 mph2.6 kmh 30.00 in1015.9 mb 0.04 in1.0 mm 0.00 in0.0 mm 1.75 in44.5 mm
07:10 AM 57.7°F14.3°C 57.5°F14.2°C 99% Calm Calm 1.6 mph2.6 kmh 30.00 in1015.9 mb 0.02 in0.5 mm 0.00 in0.0 mm 1.75 in44.5 mm
07:20 AM 58.1°F14.5°C 57.8°F14.3°C 99% Calm Calm 1.6 mph2.6 kmh 30.01 in1016.3 mb 0.02 in0.5 mm 0.00 in0.0 mm 1.75 in44.5 mm
07:30 AM 58.3°F14.6°C 58.0°F14.4°C 99% Calm Calm 2.2 mph3.5 kmh 29.99 in1015.6 mb 0.01 in0.3 mm 0.00 in0.0 mm 1.75 in44.5 mm
07:40 AM 59.0°F15.0°C 58.7°F14.8°C 99% Calm Calm 0.7 mph1.1 kmh 30.00 in1015.9 mb 0.01 in0.3 mm 0.00 in0.0 mm 1.75 in44.5 mm
07:50 AM 59.0°F15.0°C 58.7°F14.8°C 99% Calm Calm 1.6 mph2.6 kmh 30.00 in1015.9 mb 0.00 in0.0 mm 0.00 in0.0 mm 1.75 in44.5 mm
08:00 AM 59.0°F15.0°C 58.7°F14.8°C 99% Calm Calm -- 30.00 in1015.9 mb 0.00 in0.0 mm 0.00 in0.0 mm 1.75 in44.5 mm
08:10 AM 59.4°F15.2°C 59.1°F15.1°C 99% Calm Calm -- 30.00 in1015.9 mb 0.01 in0.3 mm 0.06 in1.5 mm 1.76 in44.7 mm
08:20 AM 59.5°F15.3°C 59.3°F15.2°C 99% Calm Calm -- 30.00 in1015.9 mb 0.01 in0.3 mm 0.00 in0.0 mm 1.76 in44.7 mm
08:30 AM 59.7°F15.4°C 59.5°F15.3°C 99% Calm Calm -- 30.00 in1015.9 mb 0.01 in0.3 mm 0.00 in0.0 mm 1.76 in44.7 mm
08:40 AM 59.5°F15.3°C 59.3°F15.2°C 99% Calm Calm -- 30.01 in1016.3 mb 0.01 in0.3 mm 0.00 in0.0 mm 1.76 in44.7 mm
08:50 AM 59.9°F15.5°C 59.6°F15.3°C 99% Calm Calm -- 30.01 in1016.3 mb 0.01 in0.3 mm 0.00 in0.0 mm 1.76 in44.7 mm
09:00 AM 60.3°F15.7°C 60.0°F15.6°C 99% Calm Calm 1.6 mph2.6 kmh 30.00 in1015.9 mb 0.01 in0.3 mm 0.00 in0.0 mm 1.76 in44.7 mm
09:10 AM 60.4°F15.8°C 60.2°F15.7°C 99% Calm Calm -- 30.01 in1016.3 mb 0.00 in0.0 mm 0.00 in0.0 mm 1.76 in44.7 mm
09:20 AM 60.6°F15.9°C 60.4°F15.8°C 99% Calm Calm 0.7 mph1.1 kmh 30.01 in1016.3 mb 0.00 in0.0 mm 0.00 in0.0 mm 1.76 in44.7 mm
09:30 AM 60.6°F15.9°C 60.4°F15.8°C 99% Calm Calm 0.7 mph1.1 kmh 30.02 in1016.6 mb 0.00 in0.0 mm 0.00 in0.0 mm 1.76 in44.7 mm
09:40 AM 61.0°F16.1°C 60.7°F15.9°C 99% Calm Calm -- 30.01 in1016.3 mb 0.00 in0.0 mm 0.00 in0.0 mm 1.76 in44.7 mm
09:50 AM 61.0°F16.1°C 60.7°F15.9°C 99% Calm Calm 0.7 mph1.1 kmh 30.02 in1016.6 mb 0.00 in0.0 mm 0.00 in0.0 mm 1.76 in44.7 mm
10:00 AM 61.3°F16.3°C 61.1°F16.2°C 99% Calm Calm -- 30.01 in1016.3 mb 0.00 in0.0 mm 0.00 in0.0 mm 1.76 in44.7 mm
10:10 AM 62.6°F17.0°C 62.3°F16.8°C 99% Calm Calm 1.6 mph2.6 kmh 30.01 in1016.3 mb 0.00 in0.0 mm 0.00 in0.0 mm 1.76 in44.7 mm
10:20 AM 63.0°F17.2°C 62.7°F17.1°C 99% Calm Calm 0.7 mph1.1 kmh 30.01 in1016.3 mb 0.00 in0.0 mm 0.00 in0.0 mm 1.76 in44.7 mm
10:30 AM 63.1°F17.3°C 62.9°F17.2°C 99% Calm Calm 1.6 mph2.6 kmh 30.01 in1016.3 mb 0.00 in0.0 mm 0.00 in0.0 mm 1.76 in44.7 mm
10:40 AM 63.0°F17.2°C 62.7°F17.1°C 99% 0.7 mph SW1.1 kmh SW 1.6 mph2.6 kmh 30.01 in1016.3 mb 0.00 in0.0 mm 0.00 in0.0 mm 1.76 in44.7 mm
10:50 AM 63.1°F17.3°C 62.9°F17.2°C 99% Calm Calm 1.6 mph2.6 kmh 30.01 in1016.3 mb 0.00 in0.0 mm 0.00 in0.0 mm 1.76 in44.7 mm
11:00 AM 64.0°F17.8°C 62.6°F17.0°C 95% Calm Calm 1.6 mph2.6 kmh 30.00 in1015.9 mb 0.00 in0.0 mm 0.00 in0.0 mm 1.76 in44.7 mm
11:10 AM 65.5°F18.6°C 63.1°F17.3°C 92% Calm Calm 0.7 mph1.1 kmh 30.01 in1016.3 mb 0.00 in0.0 mm 0.00 in0.0 mm 1.76 in44.7 mm
11:20 AM 64.6°F18.1°C 60.6°F15.9°C 87% Calm Calm 0.7 mph1.1 kmh 30.01 in1016.3 mb 0.00 in0.0 mm 0.00 in0.0 mm 1.76 in44.7 mm
11:30 AM 64.6°F18.1°C 60.6°F15.9°C 87% 0.7 mph SW1.1 kmh SW 1.6 mph2.6 kmh 30.01 in1016.3 mb 0.00 in0.0 mm 0.00 in0.0 mm 1.76 in44.7 mm
11:40 AM 64.4°F18.0°C 59.8°F15.4°C 85% Calm Calm 2.2 mph3.5 kmh 30.01 in1016.3 mb 0.00 in0.0 mm 0.00 in0.0 mm 1.76 in44.7 mm
11:50 AM 63.7°F17.6°C 59.1°F15.1°C 85% 0.7 mph NW1.1 kmh NW 1.6 mph2.6 kmh 30.01 in1016.3 mb 0.00 in0.0 mm 0.00 in0.0 mm 1.76 in44.7 mm
12:00 PM 63.3°F17.4°C 60.0°F15.6°C 89% Calm Calm 1.6 mph2.6 kmh 30.01 in1016.3 mb 0.00 in0.0 mm 0.00 in0.0 mm 1.76 in44.7 mm
12:10 PM 63.7°F17.6°C 59.8°F15.4°C 87% Calm Calm 0.7 mph1.1 kmh 30.01 in1016.3 mb 0.00 in0.0 mm 0.00 in0.0 mm 1.76 in44.7 mm
12:20 PM 64.0°F17.8°C 60.4°F15.8°C 88% Calm Calm 0.7 mph1.1 kmh 30.00 in1015.9 mb 0.00 in0.0 mm 0.00 in0.0 mm 1.76 in44.7 mm
12:30 PM 64.2°F17.9°C 60.3°F15.7°C 87% Calm Calm 0.7 mph1.1 kmh 30.00 in1015.9 mb 0.00 in0.0 mm 0.00 in0.0 mm 1.76 in44.7 mm
12:40 PM 64.8°F18.2°C 61.1°F16.2°C 88% Calm Calm 0.7 mph1.1 kmh 30.00 in1015.9 mb 0.00 in0.0 mm 0.00 in0.0 mm 1.76 in44.7 mm
12:50 PM 66.7°F19.3°C 62.8°F17.1°C 87% Calm Calm 0.7 mph1.1 kmh 29.99 in1015.6 mb 0.00 in0.0 mm 0.00 in0.0 mm 1.76 in44.7 mm
01:00 PM 66.6°F19.2°C 60.6°F15.9°C 81% Calm Calm 2.2 mph3.5 kmh 29.99 in1015.6 mb 0.00 in0.0 mm 0.00 in0.0 mm 1.76 in44.7 mm
01:10 PM 65.8°F18.8°C 60.2°F15.7°C 82% Calm Calm 0.7 mph1.1 kmh 29.99 in1015.6 mb 0.00 in0.0 mm 0.00 in0.0 mm 1.76 in44.7 mm
01:20 PM 65.3°F18.5°C 60.0°F15.6°C 83% Calm Calm 0.7 mph1.1 kmh 30.00 in1015.9 mb 0.00 in0.0 mm 0.00 in0.0 mm 1.76 in44.7 mm
01:30 PM 64.6°F18.1°C 59.0°F15.0°C 82% Calm Calm 2.2 mph3.5 kmh 30.00 in1015.9 mb 0.00 in0.0 mm 0.00 in0.0 mm 1.76 in44.7 mm
01:40 PM 64.8°F18.2°C 59.2°F15.1°C 82% 0.7 mph NE1.1 kmh NE 1.6 mph2.6 kmh 30.00 in1015.9 mb 0.00 in0.0 mm 0.00 in0.0 mm 1.76 in44.7 mm
01:50 PM 64.8°F18.2°C 58.8°F14.9°C 81% 0.7 mph NE1.1 kmh NE 2.2 mph3.5 kmh 30.01 in1016.3 mb 0.00 in0.0 mm 0.00 in0.0 mm 1.76 in44.7 mm
02:00 PM 65.1°F18.4°C 59.8°F15.4°C 83% Calm Calm 1.6 mph2.6 kmh 30.00 in1015.9 mb 0.00 in0.0 mm 0.00 in0.0 mm 1.76 in44.7 mm
02:10 PM 65.1°F18.4°C 59.5°F15.3°C 82% Calm Calm 3.1 mph5.0 kmh 30.01 in1016.3 mb 0.00 in0.0 mm 0.00 in0.0 mm 1.76 in44.7 mm
02:20 PM 65.8°F18.8°C 60.2°F15.7°C 82% 0.7 mph SSW1.1 kmh SSW 2.2 mph3.5 kmh 30.00 in1015.9 mb 0.00 in0.0 mm 0.00 in0.0 mm 1.76 in44.7 mm
02:30 PM 65.5°F18.6°C 59.5°F15.3°C 81% 0.7 mph NE1.1 kmh NE 2.2 mph3.5 kmh 30.00 in1015.9 mb 0.00 in0.0 mm 0.00 in0.0 mm 1.76 in44.7 mm
02:40 PM 64.8°F18.2°C 58.8°F14.9°C 81% 1.6 mph E2.6 kmh E 2.2 mph3.5 kmh 30.00 in1015.9 mb 0.00 in0.0 mm 0.00 in0.0 mm 1.76 in44.7 mm
02:50 PM 63.9°F17.7°C 57.6°F14.2°C 80% 1.6 mph E2.6 kmh E 2.2 mph3.5 kmh 30.01 in1016.3 mb 0.00 in0.0 mm 0.00 in0.0 mm 1.76 in44.7 mm
03:00 PM 63.7°F17.6°C 57.8°F14.3°C 81% 0.7 mph NE1.1 kmh NE 2.2 mph3.5 kmh 30.00 in1015.9 mb 0.00 in0.0 mm 0.00 in0.0 mm 1.76 in44.7 mm
03:10 PM 64.2°F17.9°C 59.0°F15.0°C 83% 0.7 mph E1.1 kmh E 2.2 mph3.5 kmh 30.00 in1015.9 mb 0.00 in0.0 mm 0.00 in0.0 mm 1.76 in44.7 mm
03:20 PM 64.9°F18.3°C 59.3°F15.2°C 82% 0.7 mph ENE1.1 kmh ENE 2.2 mph3.5 kmh 30.00 in1015.9 mb 0.00 in0.0 mm 0.00 in0.0 mm 1.76 in44.7 mm
03:30 PM 64.8°F18.2°C 58.1°F14.5°C 79% 0.7 mph E1.1 kmh E 3.1 mph5.0 kmh 30.01 in1016.3 mb 0.00 in0.0 mm 0.00 in0.0 mm 1.76 in44.7 mm
03:40 PM 63.9°F17.7°C 56.9°F13.8°C 78% 1.6 mph E2.6 kmh E 3.1 mph5.0 kmh 30.01 in1016.3 mb 0.00 in0.0 mm 0.00 in0.0 mm 1.76 in44.7 mm
03:50 PM 64.4°F18.0°C 58.1°F14.5°C 80% 1.6 mph E2.6 kmh E 3.1 mph5.0 kmh 30.01 in1016.3 mb 0.00 in0.0 mm 0.00 in0.0 mm 1.76 in44.7 mm
04:00 PM 64.4°F18.0°C 57.1°F13.9°C 77% 1.6 mph E2.6 kmh E 3.8 mph6.1 kmh 30.01 in1016.3 mb 0.00 in0.0 mm 0.00 in0.0 mm 1.76 in44.7 mm
04:10 PM 64.6°F18.1°C 57.2°F14.0°C 77% 1.6 mph ENE2.6 kmh ENE 3.8 mph6.1 kmh 30.00 in1015.9 mb 0.00 in0.0 mm 0.00 in0.0 mm 1.76 in44.7 mm
04:20 PM 64.2°F17.9°C 56.5°F13.6°C 76% 2.2 mph ENE3.5 kmh ENE 3.8 mph6.1 kmh 30.01 in1016.3 mb 0.00 in0.0 mm 0.00 in0.0 mm 1.76 in44.7 mm
04:30 PM 64.4°F18.0°C 57.1°F13.9°C 77% 0.7 mph NE1.1 kmh NE 3.8 mph6.1 kmh 30.02 in1016.6 mb 0.00 in0.0 mm 0.00 in0.0 mm 1.76 in44.7 mm
04:40 PM 64.4°F18.0°C 57.4°F14.1°C 78% 0.7 mph NE1.1 kmh NE 3.1 mph5.0 kmh 30.01 in1016.3 mb 0.00 in0.0 mm 0.00 in0.0 mm 1.76 in44.7 mm
04:50 PM 64.9°F18.3°C 57.9°F14.4°C 78% 1.6 mph NE2.6 kmh NE 2.2 mph3.5 kmh 30.02 in1016.6 mb 0.00 in0.0 mm 0.00 in0.0 mm 1.76 in44.7 mm
05:00 PM 64.2°F17.9°C 56.1°F13.4°C 75% 0.7 mph NE1.1 kmh NE 3.1 mph5.0 kmh 30.02 in1016.6 mb 0.00 in0.0 mm 0.00 in0.0 mm 1.76 in44.7 mm
05:10 PM 63.5°F17.5°C 56.2°F13.4°C 77% Calm Calm 1.6 mph2.6 kmh 30.02 in1016.6 mb 0.00 in0.0 mm 0.00 in0.0 mm 1.76 in44.7 mm
05:20 PM 63.0°F17.2°C 57.1°F13.9°C 81% 0.7 mph NE1.1 kmh NE 2.2 mph3.5 kmh 30.02 in1016.6 mb 0.00 in0.0 mm 0.00 in0.0 mm 1.76 in44.7 mm
05:30 PM 62.6°F17.0°C 57.0°F13.9°C 82% 0.7 mph NE1.1 kmh NE 3.1 mph5.0 kmh 30.02 in1016.6 mb 0.00 in0.0 mm 0.00 in0.0 mm 1.76 in44.7 mm
05:40 PM 62.2°F16.8°C 57.0°F13.9°C 83% 0.7 mph E1.1 kmh E 2.2 mph3.5 kmh 30.02 in1016.6 mb 0.00 in0.0 mm 0.00 in0.0 mm 1.76 in44.7 mm
05:50 PM 61.7°F16.5°C 56.8°F13.8°C 84% 0.7 mph ESE1.1 kmh ESE 2.2 mph3.5 kmh 30.03 in1016.9 mb 0.00 in0.0 mm 0.00 in0.0 mm 1.76 in44.7 mm
06:00 PM 61.5°F16.4°C 56.7°F13.7°C 84% 1.6 mph ENE2.6 kmh ENE 2.2 mph3.5 kmh 30.03 in1016.9 mb 0.00 in0.0 mm 0.00 in0.0 mm 1.76 in44.7 mm
06:10 PM 61.3°F16.3°C 56.8°F13.8°C 85% 0.7 mph E1.1 kmh E 2.2 mph3.5 kmh 30.03 in1016.9 mb 0.00 in0.0 mm 0.00 in0.0 mm 1.76 in44.7 mm
06:20 PM 61.0°F16.1°C 56.5°F13.6°C 85% 0.7 mph NE1.1 kmh NE 3.1 mph5.0 kmh 30.03 in1016.9 mb 0.00 in0.0 mm 0.00 in0.0 mm 1.76 in44.7 mm
06:30 PM 60.8°F16.0°C 56.6°F13.7°C 86% 0.7 mph NE1.1 kmh NE 3.1 mph5.0 kmh 30.04 in1017.3 mb 0.00 in0.0 mm 0.00 in0.0 mm 1.76 in44.7 mm
06:40 PM 60.6°F15.9°C 56.4°F13.6°C 86% 1.6 mph ENE2.6 kmh ENE 3.8 mph6.1 kmh 30.04 in1017.3 mb 0.00 in0.0 mm 0.00 in0.0 mm 1.76 in44.7 mm
06:50 PM 60.6°F15.9°C 56.4°F13.6°C 86% 1.6 mph NE2.6 kmh NE 3.8 mph6.1 kmh 30.04 in1017.3 mb 0.00 in0.0 mm 0.00 in0.0 mm 1.76 in44.7 mm
07:00 PM 60.3°F15.7°C 56.1°F13.4°C 86% 1.6 mph ENE2.6 kmh ENE 3.8 mph6.1 kmh 30.04 in1017.3 mb 0.00 in0.0 mm 0.00 in0.0 mm 1.76 in44.7 mm
07:10 PM 59.7°F15.4°C 55.5°F13.1°C 86% 0.7 mph E1.1 kmh E 2.2 mph3.5 kmh 30.04 in1017.3 mb 0.00 in0.0 mm 0.00 in0.0 mm 1.76 in44.7 mm
07:20 PM 58.8°F14.9°C 54.7°F12.6°C 86% 0.7 mph NE1.1 kmh NE 2.2 mph3.5 kmh 30.03 in1016.9 mb 0.00 in0.0 mm 0.00 in0.0 mm 1.76 in44.7 mm
07:30 PM 58.3°F14.6°C 54.4°F12.4°C 87% 0.7 mph NNE1.1 kmh NNE 2.2 mph3.5 kmh 30.03 in1016.9 mb 0.00 in0.0 mm 0.00 in0.0 mm 1.76 in44.7 mm
07:40 PM 57.9°F14.4°C 54.4°F12.4°C 88% Calm Calm 1.6 mph2.6 kmh 30.04 in1017.3 mb 0.00 in0.0 mm 0.00 in0.0 mm 1.76 in44.7 mm
07:50 PM 57.2°F14.0°C 53.7°F12.1°C 88% Calm Calm 0.7 mph1.1 kmh 30.03 in1016.9 mb 0.00 in0.0 mm 0.00 in0.0 mm 1.76 in44.7 mm
08:00 PM 57.0°F13.9°C 54.1°F12.3°C 90% Calm Calm 0.7 mph1.1 kmh 30.03 in1016.9 mb 0.00 in0.0 mm 0.00 in0.0 mm 1.76 in44.7 mm
08:10 PM 56.8°F13.8°C 54.3°F12.4°C 91% Calm Calm 0.7 mph1.1 kmh 30.03 in1016.9 mb 0.00 in0.0 mm 0.00 in0.0 mm 1.76 in44.7 mm
08:20 PM 56.3°F13.5°C 53.7°F12.1°C 91% Calm Calm 1.6 mph2.6 kmh 30.03 in1016.9 mb 0.00 in0.0 mm 0.00 in0.0 mm 1.76 in44.7 mm
08:30 PM 56.3°F13.5°C 54.0°F12.2°C 92% Calm Calm 1.6 mph2.6 kmh 30.03 in1016.9 mb 0.00 in0.0 mm 0.00 in0.0 mm 1.76 in44.7 mm
08:40 PM 56.1°F13.4°C 53.8°F12.1°C 92% 0.7 mph NNE1.1 kmh NNE 1.6 mph2.6 kmh 30.03 in1016.9 mb 0.00 in0.0 mm 0.00 in0.0 mm 1.76 in44.7 mm
08:50 PM 55.8°F13.2°C 53.8°F12.1°C 93% 0.7 mph NE1.1 kmh NE 1.6 mph2.6 kmh 30.04 in1017.3 mb 0.00 in0.0 mm 0.00 in0.0 mm 1.76 in44.7 mm
09:00 PM 55.8°F13.2°C 53.8°F12.1°C 93% 0.7 mph NE1.1 kmh NE 2.2 mph3.5 kmh 30.04 in1017.3 mb 0.00 in0.0 mm 0.00 in0.0 mm 1.76 in44.7 mm
09:10 PM 55.8°F13.2°C 54.1°F12.3°C 94% Calm Calm 1.6 mph2.6 kmh 30.03 in1016.9 mb 0.00 in0.0 mm 0.00 in0.0 mm 1.76 in44.7 mm
09:20 PM 55.6°F13.1°C 53.9°F12.2°C 94% 0.7 mph NE1.1 kmh NE 1.6 mph2.6 kmh 30.03 in1016.9 mb 0.00 in0.0 mm 0.00 in0.0 mm 1.76 in44.7 mm
09:30 PM 55.4°F13.0°C 53.7°F12.1°C 94% Calm Calm 1.6 mph2.6 kmh 30.03 in1016.9 mb 0.00 in0.0 mm 0.00 in0.0 mm 1.76 in44.7 mm
09:40 PM 55.2°F12.9°C 53.5°F11.9°C 94% Calm Calm 1.6 mph2.6 kmh 30.03 in1016.9 mb 0.00 in0.0 mm 0.00 in0.0 mm 1.76 in44.7 mm
09:50 PM 55.2°F12.9°C 53.8°F12.1°C 95% Calm Calm 1.6 mph2.6 kmh 30.03 in1016.9 mb 0.00 in0.0 mm 0.00 in0.0 mm 1.76 in44.7 mm
10:00 PM 55.0°F12.8°C 53.6°F12.0°C 95% Calm Calm 1.6 mph2.6 kmh 30.03 in1016.9 mb 0.00 in0.0 mm 0.00 in0.0 mm 1.76 in44.7 mm
10:10 PM 54.9°F12.7°C 53.5°F11.9°C 95% 0.7 mph NE1.1 kmh NE 1.6 mph2.6 kmh 30.04 in1017.3 mb 0.00 in0.0 mm 0.00 in0.0 mm 1.76 in44.7 mm
10:20 PM 54.7°F12.6°C 53.3°F11.8°C 95% 0.7 mph NE1.1 kmh NE 1.6 mph2.6 kmh 30.03 in1016.9 mb 0.00 in0.0 mm 0.00 in0.0 mm 1.76 in44.7 mm
10:30 PM 55.2°F12.9°C 54.1°F12.3°C 96% 0.7 mph E1.1 kmh E 2.2 mph3.5 kmh 30.04 in1017.3 mb 0.00 in0.0 mm 0.00 in0.0 mm 1.76 in44.7 mm
10:40 PM 55.9°F13.3°C 55.1°F12.8°C 97% 0.7 mph ENE1.1 kmh ENE 2.2 mph3.5 kmh 30.04 in1017.3 mb 0.00 in0.0 mm 0.00 in0.0 mm 1.76 in44.7 mm
10:50 PM 56.3°F13.5°C 55.5°F13.1°C 97% 1.6 mph ENE2.6 kmh ENE 2.2 mph3.5 kmh 30.04 in1017.3 mb 0.00 in0.0 mm 0.00 in0.0 mm 1.76 in44.7 mm
11:00 PM 56.5°F13.6°C 55.9°F13.3°C 98% 0.7 mph E1.1 kmh E 2.2 mph3.5 kmh 30.04 in1017.3 mb 0.00 in0.0 mm 0.00 in0.0 mm 1.05 in26.7 mm
11:10 PM 56.7°F13.7°C 56.1°F13.4°C 98% 0.7 mph E1.1 kmh E 1.6 mph2.6 kmh 30.04 in1017.3 mb 0.00 in0.0 mm 0.00 in0.0 mm 1.05 in26.7 mm
11:20 PM 56.5°F13.6°C 55.9°F13.3°C 98% Calm Calm 1.6 mph2.6 kmh 30.05 in1017.6 mb 0.00 in0.0 mm 0.00 in0.0 mm 1.05 in26.7 mm
11:30 PM 56.1°F13.4°C 55.6°F13.1°C 98% Calm Calm 2.2 mph3.5 kmh 30.05 in1017.6 mb 0.00 in0.0 mm 0.00 in0.0 mm 1.05 in26.7 mm
11:40 PM 55.8°F13.2°C 54.9°F12.7°C 97% Calm Calm 1.6 mph2.6 kmh 30.04 in1017.3 mb 0.00 in0.0 mm 0.00 in0.0 mm 1.05 in26.7 mm
11:50 PM 55.4°F13.0°C 54.6°F12.6°C 97% 0.7 mph NE1.1 kmh NE 1.6 mph2.6 kmh 30.04 in1017.3 mb 0.00 in0.0 mm 0.00 in0.0 mm 1.05 in26.7 mm